Time;durP1;ratioP1;P1;durP2;ratioP2;P2;SDS_P1;SDS_P2;PMS_P1;PMS_P2;Temp;Humidity;BMP_temperature;BMP_pressure;BME280_temperature;BME280_humidity;BME280_pressure;Samples;Min_cycle;Max_cycle;Signal;HPM_P1;HPM_P2
2023/09/08 00:00:21;;;;;;;7.83;6.97;;;;;24.60;100704.00;;;;2077255;28;20213;-65
2023/09/08 00:01:22;;;;;;;8.80;7.07;;;;;24.60;100705.00;;;;2081503;28;20689;-65
2023/09/08 00:02:24;;;;;;;10.13;6.83;;;;;24.60;100708.00;;;;2089512;28;20288;-65
2023/09/08 00:03:24;;;;;;;8.80;7.60;;;;;24.60;100693.00;;;;2092283;28;20224;-65
2023/09/08 00:04:24;;;;;;;10.83;7.60;;;;;24.60;100698.00;;;;2082263;28;20706;-65
2023/09/08 00:05:25;;;;;;;12.20;7.10;;;;;24.70;100701.00;;;;2074751;28;20208;-65
2023/09/08 00:06:25;;;;;;;11.83;7.30;;;;;24.70;100702.00;;;;2089639;28;20236;-65
2023/09/08 00:07:25;;;;;;;10.60;7.20;;;;;24.70;100707.00;;;;2095128;28;20227;-65
2023/09/08 00:08:26;;;;;;;9.07;8.10;;;;;24.70;100703.00;;;;2091606;28;20288;-65
2023/09/08 00:09:26;;;;;;;10.00;7.57;;;;;24.70;100702.00;;;;2076516;28;20282;-65
2023/09/08 00:10:26;;;;;;;11.20;7.30;;;;;24.70;100637.00;;;;2069646;28;20687;-65
2023/09/08 00:11:27;;;;;;;7.83;7.00;;;;;24.60;100695.00;;;;2073190;28;20221;-65
2023/09/08 00:12:27;;;;;;;8.50;7.60;;;;;24.70;100697.00;;;;2078495;28;20218;-65
2023/09/08 00:13:27;;;;;;;7.93;7.03;;;;;24.70;100694.00;;;;2081556;28;20213;-66
2023/09/08 00:14:28;;;;;;;8.67;7.77;;;;;24.70;100695.00;;;;2091729;28;20228;-66
2023/09/08 00:15:28;;;;;;;8.57;7.50;;;;;24.70;100690.00;;;;2079076;28;20260;-66
2023/09/08 00:16:29;;;;;;;8.73;7.00;;;;;24.70;100656.00;;;;2087704;28;20233;-66
2023/09/08 00:17:29;;;;;;;8.85;6.47;;;;;24.70;100695.00;;;;2088217;28;20220;-66
2023/09/08 00:18:30;;;;;;;8.70;7.33;;;;;24.70;100694.00;;;;2087727;28;20205;-66
2023/09/08 00:19:30;;;;;;;7.20;6.17;;;;;24.70;100693.00;;;;2088594;28;20220;-66
2023/09/08 00:20:30;;;;;;;8.33;7.17;;;;;24.70;100646.00;;;;2082616;28;20204;-66
2023/09/08 00:21:31;;;;;;;7.40;6.50;;;;;24.70;100690.00;;;;2079022;28;20237;-66
2023/09/08 00:22:31;;;;;;;10.00;7.77;;;;;24.70;100694.00;;;;2085528;28;20208;-66
2023/09/08 00:23:31;;;;;;;8.90;7.40;;;;;24.70;100693.00;;;;2091904;28;20209;-66
2023/09/08 00:24:32;;;;;;;8.30;6.60;;;;;24.70;100697.00;;;;2094786;28;20289;-66
2023/09/08 00:25:32;;;;;;;6.90;6.20;;;;;24.70;100697.00;;;;2078869;28;20221;-66
2023/09/08 00:26:32;;;;;;;7.47;6.60;;;;;24.70;100701.00;;;;2090390;28;20213;-66
2023/09/08 00:27:33;;;;;;;8.90;7.30;;;;;24.70;100700.00;;;;2087641;28;20298;-66
2023/09/08 00:28:33;;;;;;;6.70;5.87;;;;;24.70;100700.00;;;;2086627;28;20213;-66
2023/09/08 00:29:33;;;;;;;7.50;6.80;;;;;24.70;100695.00;;;;2083967;28;20926;-66
2023/09/08 00:30:34;;;;;;;7.67;6.87;;;;;24.70;100698.00;;;;2068470;28;20688;-66
2023/09/08 00:31:34;;;;;;;9.13;6.50;;;;;24.70;100702.00;;;;2088665;28;20257;-66
2023/09/08 00:32:35;;;;;;;7.30;6.60;;;;;24.70;100703.00;;;;2080199;28;20214;-66
2023/09/08 00:33:35;;;;;;;6.47;5.87;;;;;24.70;100696.00;;;;2085730;28;20243;-66
2023/09/08 00:34:35;;;;;;;9.10;6.37;;;;;24.70;100697.00;;;;2094914;28;20216;-66
2023/09/08 00:35:36;;;;;;;7.97;6.77;;;;;24.70;100693.00;;;;2083668;28;20212;-66
2023/09/08 00:36:36;;;;;;;6.90;6.30;;;;;24.70;100698.00;;;;2088659;28;20216;-66
2023/09/08 00:37:37;;;;;;;7.70;7.00;;;;;24.70;100694.00;;;;2095517;28;21547;-66
2023/09/08 00:38:37;;;;;;;7.80;6.43;;;;;24.70;100690.00;;;;2096425;28;20204;-66
2023/09/08 00:39:37;;;;;;;10.40;6.30;;;;;24.70;100686.00;;;;2096504;28;20273;-66
2023/09/08 00:40:38;;;;;;;10.57;6.07;;;;;24.70;100690.00;;;;2086276;28;20216;-66
2023/09/08 00:41:38;;;;;;;8.50;6.63;;;;;24.70;100681.00;;;;2096831;28;20265;-66
2023/09/08 00:42:38;;;;;;;7.80;6.30;;;;;24.70;100672.00;;;;2093623;28;20215;-66
2023/09/08 00:43:39;;;;;;;6.93;6.23;;;;;24.70;100694.00;;;;2084485;28;20220;-66
2023/09/08 00:44:39;;;;;;;7.87;6.80;;;;;24.70;100685.00;;;;2078597;28;20233;-66
2023/09/08 00:45:41;;;;;;;9.07;6.90;;;;;24.70;100692.00;;;;2077744;28;20739;-66
2023/09/08 00:46:41;;;;;;;7.90;5.70;;;;;24.70;100684.00;;;;2085479;28;20226;-66
2023/09/08 00:47:42;;;;;;;7.47;6.73;;;;;24.80;100692.00;;;;2079018;28;20268;-66
2023/09/08 00:48:42;;;;;;;6.70;6.00;;;;;24.70;100688.00;;;;2087755;28;20212;-66
2023/09/08 00:49:43;;;;;;;7.17;6.10;;;;;24.70;100676.00;;;;2095534;28;20215;-66
2023/09/08 00:50:43;;;;;;;8.20;6.80;;;;;24.70;100689.00;;;;2086711;28;20240;-66
2023/09/08 00:51:44;;;;;;;6.37;5.53;;;;;24.70;100688.00;;;;2094099;28;20216;-66
2023/09/08 00:52:44;;;;;;;6.23;5.70;;;;;24.70;100693.00;;;;2087889;28;20217;-66
2023/09/08 00:53:44;;;;;;;6.20;5.60;;;;;24.70;100694.00;;;;2092423;28;20228;-66
2023/09/08 00:54:45;;;;;;;6.97;6.10;;;;;24.70;100691.00;;;;2085941;28;20221;-66
2023/09/08 00:55:45;;;;;;;6.40;5.80;;;;;24.70;100691.00;;;;2077871;28;20262;-66
2023/09/08 00:56:46;;;;;;;7.13;6.43;;;;;24.70;100688.00;;;;2078807;28;20213;-66
2023/09/08 00:57:46;;;;;;;7.27;6.10;;;;;24.70;100690.00;;;;2071097;28;20226;-66
2023/09/08 00:58:47;;;;;;;6.30;5.70;;;;;24.70;100692.00;;;;2076341;28;20862;-66
2023/09/08 00:59:47;;;;;;;6.53;5.80;;;;;24.70;100692.00;;;;2084318;28;20702;-66
2023/09/08 01:00:47;;;;;;;7.40;6.27;;;;;24.70;100694.00;;;;2065848;28;20216;-66
2023/09/08 01:01:48;;;;;;;7.27;6.47;;;;;24.70;100702.00;;;;2078388;28;20202;-66
2023/09/08 01:02:48;;;;;;;7.00;6.30;;;;;24.70;100688.00;;;;2078680;28;20216;-66
2023/09/08 01:03:48;;;;;;;7.00;5.90;;;;;24.70;100693.00;;;;2068756;28;20207;-66
2023/09/08 01:04:49;;;;;;;6.57;5.87;;;;;24.70;100686.00;;;;2085683;28;20267;-66
2023/09/08 01:05:49;;;;;;;6.30;5.70;;;;;24.70;100693.00;;;;2071610;28;20221;-66
2023/09/08 01:06:49;;;;;;;6.10;5.50;;;;;24.70;100686.00;;;;2079319;28;20210;-66
2023/09/08 01:07:50;;;;;;;8.43;5.80;;;;;24.60;100693.00;;;;2079299;28;20218;-66
2023/09/08 01:08:50;;;;;;;6.33;5.50;;;;;24.70;100689.00;;;;2082481;28;20210;-66
2023/09/08 01:09:50;;;;;;;6.53;5.50;;;;;24.70;100639.00;;;;2079806;28;20898;-66
2023/09/08 01:10:51;;;;;;;6.90;6.20;;;;;24.70;100696.00;;;;2077263;28;20723;-66
2023/09/08 01:11:51;;;;;;;6.60;5.80;;;;;24.70;100690.00;;;;2092893;28;20550;-66
2023/09/08 01:12:52;;;;;;;6.87;6.17;;;;;24.70;100682.00;;;;2089184;28;20685;-66
2023/09/08 01:13:52;;;;;;;6.67;6.00;;;;;24.60;100685.00;;;;2079515;28;20690;-66
2023/09/08 01:14:52;;;;;;;7.40;5.93;;;;;24.70;100687.00;;;;2078498;28;20209;-66
2023/09/08 01:15:53;;;;;;;9.63;5.80;;;;;24.70;100677.00;;;;2077036;28;20220;-66
2023/09/08 01:16:53;;;;;;;6.73;6.03;;;;;24.70;100678.00;;;;2089989;28;20248;-66
2023/09/08 01:17:54;;;;;;;7.90;5.97;;;;;24.70;100655.00;;;;2084240;28;20217;-66
2023/09/08 01:18:54;;;;;;;5.83;5.30;;;;;24.60;100638.00;;;;2087944;28;20299;-66
2023/09/08 01:19:55;;;;;;;6.57;5.90;;;;;24.60;100693.00;;;;2074657;28;20947;-66
2023/09/08 01:21:25;;;;;;;7.57;5.63;;;;;24.60;100688.00;;;;2064958;28;20647;-66
2023/09/08 01:22:43;;;;;;;6.00;5.05;;;;;24.60;100678.00;;;;2082280;28;20221;-66
2023/09/08 01:24:04;;;;;;;6.28;5.68;;;;;24.60;100620.00;;;;2087523;28;20568;-66
2023/09/08 01:25:21;;;;;;;8.18;5.50;;;;;24.60;100668.00;;;;2070594;28;20226;-66
2023/09/08 01:26:22;;;;;;;6.13;5.53;;;;;24.60;100680.00;;;;2062148;28;20226;-66
2023/09/08 01:27:23;;;;;;;6.60;5.20;;;;;24.60;100623.00;;;;2091063;28;20218;-66
2023/09/08 01:28:23;;;;;;;5.93;5.07;;;;;24.60;100682.00;;;;2079585;28;20213;-66
2023/09/08 01:29:24;;;;;;;8.30;5.57;;;;;24.60;100676.00;;;;2074274;28;20538;-66
2023/09/08 01:30:26;;;;;;;5.67;5.17;;;;;24.60;100678.00;;;;2065432;28;20213;-66
2023/09/08 01:31:27;;;;;;;5.72;5.22;;;;;24.60;100683.00;;;;2070782;28;20551;-66
2023/09/08 01:32:27;;;;;;;5.67;5.07;;;;;24.60;100674.00;;;;2073980;28;20217;-66
2023/09/08 01:33:28;;;;;;;6.03;5.43;;;;;24.60;100674.00;;;;2058358;28;20226;-66
2023/09/08 01:34:28;;;;;;;7.63;5.60;;;;;24.60;100671.00;;;;2063649;28;20218;-66
2023/09/08 01:35:29;;;;;;;6.33;5.70;;;;;24.60;100619.00;;;;2053023;28;20223;-66
2023/09/08 01:36:29;;;;;;;6.20;5.60;;;;;24.50;100678.00;;;;2063204;28;20458;-66
2023/09/08 01:37:30;;;;;;;7.10;6.40;;;;;24.50;100672.00;;;;2082317;28;20209;-66
2023/09/08 01:38:30;;;;;;;6.33;5.73;;;;;24.60;100679.00;;;;2082462;28;20651;-66
2023/09/08 01:39:30;;;;;;;6.83;5.73;;;;;24.60;100678.00;;;;2080297;28;20572;-66
2023/09/08 01:40:31;;;;;;;5.93;5.17;;;;;24.50;100670.00;;;;2082141;28;20703;-66
2023/09/08 01:41:32;;;;;;;5.57;5.07;;;;;24.60;100678.00;;;;2082842;28;20609;-66
2023/09/08 01:42:32;;;;;;;5.85;5.35;;;;;24.50;100673.00;;;;2082537;28;20604;-66
2023/09/08 01:43:32;;;;;;;5.43;4.93;;;;;24.50;100670.00;;;;2082376;28;20213;-66
2023/09/08 01:44:33;;;;;;;5.80;5.10;;;;;24.50;100663.00;;;;2079976;28;20221;-66
2023/09/08 01:45:33;;;;;;;6.60;5.83;;;;;24.50;100673.00;;;;2075964;28;20262;-66
2023/09/08 01:46:34;;;;;;;7.60;5.97;;;;;24.50;100678.00;;;;2086652;28;20287;-66
2023/09/08 01:47:34;;;;;;;5.97;5.40;;;;;24.50;100671.00;;;;2086794;28;20290;-66
2023/09/08 01:48:35;;;;;;;6.47;5.83;;;;;24.50;100675.00;;;;2084634;28;20213;-66
2023/09/08 01:49:35;;;;;;;6.07;5.50;;;;;24.50;100674.00;;;;2087134;28;20213;-66
2023/09/08 01:50:35;;;;;;;6.67;5.40;;;;;24.50;100673.00;;;;2074637;28;20205;-66
2023/09/08 01:51:36;;;;;;;6.23;5.73;;;;;24.50;100674.00;;;;2092116;28;20216;-66
2023/09/08 01:52:36;;;;;;;6.00;5.40;;;;;24.50;100673.00;;;;2088152;28;20303;-66
2023/09/08 01:53:36;;;;;;;5.80;5.20;;;;;24.50;100663.00;;;;2088416;28;20217;-66
2023/09/08 01:54:37;;;;;;;6.23;5.63;;;;;24.50;100659.00;;;;2090794;28;20213;-66
2023/09/08 01:55:37;;;;;;;5.60;5.10;;;;;24.50;100664.00;;;;2079075;28;20771;-66
2023/09/08 01:56:37;;;;;;;6.73;5.20;;;;;24.50;100667.00;;;;2086144;28;20225;-66
2023/09/08 01:57:37;;;;;;;6.03;5.53;;;;;24.50;100661.00;;;;2088415;28;20201;-66
2023/09/08 01:58:38;;;;;;;5.77;5.27;;;;;24.50;100671.00;;;;2090728;28;20255;-66
2023/09/08 01:59:38;;;;;;;6.40;5.80;;;;;24.50;100663.00;;;;2082863;28;20260;-66
2023/09/08 02:00:38;;;;;;;6.07;5.47;;;;;24.50;100658.00;;;;2071023;28;20213;-66
2023/09/08 02:01:39;;;;;;;6.60;5.83;;;;;24.50;100661.00;;;;2091602;28;20238;-66
2023/09/08 02:02:40;;;;;;;5.00;4.60;;;;;24.50;100671.00;;;;2089012;28;20212;-66
2023/09/08 02:03:40;;;;;;;5.77;5.20;;;;;24.50;100662.00;;;;2089815;28;21079;-66
2023/09/08 02:04:40;;;;;;;6.53;5.10;;;;;24.50;100663.00;;;;2083018;28;20232;-66
2023/09/08 02:05:41;;;;;;;6.03;5.43;;;;;24.50;100662.00;;;;2063154;28;20272;-66
2023/09/08 02:06:41;;;;;;;5.93;5.43;;;;;24.50;100666.00;;;;2080745;28;20217;-66
2023/09/08 02:07:41;;;;;;;6.33;5.77;;;;;24.50;100660.00;;;;2088427;28;20251;-66
2023/09/08 02:08:42;;;;;;;5.80;5.30;;;;;24.50;100663.00;;;;2089921;28;20209;-66
2023/09/08 02:09:42;;;;;;;6.97;5.67;;;;;24.50;100662.00;;;;2090807;28;20674;-66
2023/09/08 02:10:45;;;;;;;6.07;5.47;;;;;24.50;100663.00;;;;2065355;28;20269;-66
2023/09/08 02:11:46;;;;;;;6.07;5.47;;;;;24.50;100662.00;;;;2082110;28;20582;-65
2023/09/08 02:12:46;;;;;;;5.50;4.97;;;;;24.50;100667.00;;;;2084544;28;20248;-65
2023/09/08 02:13:46;;;;;;;6.77;6.07;;;;;24.50;100657.00;;;;2076821;28;20221;-65
2023/09/08 02:14:47;;;;;;;5.90;5.30;;;;;24.50;100668.00;;;;2080206;28;20271;-65
2023/09/08 02:15:47;;;;;;;5.30;4.80;;;;;24.50;100660.00;;;;2081458;28;20252;-65
2023/09/08 02:16:47;;;;;;;6.80;5.40;;;;;24.50;100660.00;;;;2088255;28;20636;-65
2023/09/08 02:17:55;;;;;;;6.13;5.20;;;;;24.50;100668.00;;;;2087356;28;20602;-65
2023/09/08 02:18:55;;;;;;;5.70;5.20;;;;;24.50;100667.00;;;;2090661;28;20224;-65
2023/09/08 02:19:56;;;;;;;6.00;5.40;;;;;24.50;100655.00;;;;2091726;28;20580;-65
2023/09/08 02:20:56;;;;;;;5.90;5.40;;;;;24.50;100660.00;;;;2081778;28;20592;-65
2023/09/08 02:21:57;;;;;;;5.80;5.20;;;;;24.50;100659.00;;;;2091869;28;20213;-65
2023/09/08 02:22:57;;;;;;;6.10;5.43;;;;;24.50;100658.00;;;;2095318;28;20219;-65
2023/09/08 02:23:58;;;;;;;6.93;5.30;;;;;24.50;100658.00;;;;2086651;28;20213;-65
2023/09/08 02:24:59;;;;;;;5.93;4.73;;;;;24.50;100663.00;;;;2078912;28;20214;-65
2023/09/08 02:25:59;;;;;;;6.20;5.40;;;;;24.50;100664.00;;;;2065898;28;20237;-66
2023/09/08 02:26:59;;;;;;;5.50;5.00;;;;;24.50;100663.00;;;;2095439;28;20450;-66
2023/09/08 02:27:59;;;;;;;5.80;5.23;;;;;24.50;100661.00;;;;2094743;28;20209;-66
2023/09/08 02:29:00;;;;;;;5.20;4.80;;;;;24.50;100670.00;;;;2086781;28;20208;-66
2023/09/08 02:30:00;;;;;;;5.63;5.13;;;;;24.50;100620.00;;;;2087094;28;20223;-66
2023/09/08 02:31:01;;;;;;;5.47;4.97;;;;;24.50;100662.00;;;;2075849;28;20220;-66
2023/09/08 02:32:01;;;;;;;5.63;5.10;;;;;24.50;100665.00;;;;2078316;28;20218;-66
2023/09/08 02:33:02;;;;;;;5.20;4.70;;;;;24.50;100666.00;;;;2084918;28;20573;-66
2023/09/08 02:34:03;;;;;;;6.18;5.43;;;;;24.50;100665.00;;;;2091426;28;20773;-66
2023/09/08 02:35:03;;;;;;;7.30;5.67;;;;;24.50;100666.00;;;;2088034;28;20224;-66
2023/09/08 02:36:05;;;;;;;6.70;5.30;;;;;24.40;100676.00;;;;2080527;28;20239;-66
2023/09/08 02:37:05;;;;;;;5.70;5.10;;;;;24.40;100674.00;;;;2084230;28;20216;-66
2023/09/08 02:38:05;;;;;;;7.90;5.33;;;;;24.40;100663.00;;;;2094430;28;20556;-66
2023/09/08 02:39:06;;;;;;;5.60;5.10;;;;;24.40;100666.00;;;;2078520;28;20811;-66
2023/09/08 02:40:07;;;;;;;5.38;4.97;;;;;24.40;100664.00;;;;2081580;28;20295;-66
2023/09/08 02:41:07;;;;;;;5.20;4.70;;;;;24.40;100668.00;;;;2081929;28;20924;-66
2023/09/08 02:42:08;;;;;;;6.13;5.43;;;;;24.50;100671.00;;;;2087667;28;20208;-66
2023/09/08 02:43:08;;;;;;;5.60;5.10;;;;;24.50;100659.00;;;;2088130;28;20220;-66
2023/09/08 02:44:08;;;;;;;5.47;4.97;;;;;24.40;100668.00;;;;2095058;28;20203;-66
2023/09/08 02:45:09;;;;;;;6.03;5.53;;;;;24.40;100662.00;;;;2083430;28;20201;-66
2023/09/08 02:46:09;;;;;;;5.70;5.20;;;;;24.40;100667.00;;;;2077042;28;20227;-66
2023/09/08 02:47:10;;;;;;;6.97;5.27;;;;;24.50;100668.00;;;;2089788;28;20223;-66
2023/09/08 02:48:10;;;;;;;5.70;5.20;;;;;24.50;100663.00;;;;2092341;28;20212;-66
2023/09/08 02:49:11;;;;;;;5.33;4.90;;;;;24.40;100668.00;;;;2095084;28;20214;-66
2023/09/08 02:50:11;;;;;;;5.70;5.20;;;;;24.40;100608.00;;;;2088707;28;20208;-66
2023/09/08 02:51:12;;;;;;;5.70;5.20;;;;;24.40;100659.00;;;;2071065;28;20244;-66
2023/09/08 02:52:12;;;;;;;5.77;5.13;;;;;24.40;100630.00;;;;2086214;28;20213;-66
2023/09/08 02:53:12;;;;;;;5.20;4.70;;;;;24.40;100674.00;;;;2091071;28;20204;-66
2023/09/08 02:54:13;;;;;;;5.73;4.90;;;;;24.40;100667.00;;;;2093290;28;20689;-66
2023/09/08 02:55:13;;;;;;;5.00;4.50;;;;;24.40;100674.00;;;;2087031;28;20243;-66
2023/09/08 02:56:13;;;;;;;5.90;5.40;;;;;24.40;100678.00;;;;2075721;28;20212;-66
2023/09/08 02:57:14;;;;;;;6.23;5.60;;;;;24.40;100674.00;;;;2073435;28;20209;-66
2023/09/08 02:58:14;;;;;;;6.13;5.00;;;;;24.40;100673.00;;;;2088179;28;20280;-66
2023/09/08 02:59:14;;;;;;;5.40;4.80;;;;;24.40;100677.00;;;;2089769;28;20256;-66
2023/09/08 03:00:15;;;;;;;5.87;5.37;;;;;24.40;100656.00;;;;2090037;28;20221;-66
2023/09/08 03:01:16;;;;;;;6.97;5.30;;;;;24.40;100668.00;;;;2078953;28;20209;-66
2023/09/08 03:02:16;;;;;;;5.35;4.85;;;;;24.40;100668.00;;;;2093677;28;20212;-66
2023/09/08 03:03:17;;;;;;;5.83;5.23;;;;;24.40;100667.00;;;;2080598;28;20241;-66
2023/09/08 03:04:18;;;;;;;7.17;5.53;;;;;24.40;100664.00;;;;2093295;28;20299;-66
2023/09/08 03:05:18;;;;;;;5.00;4.50;;;;;24.40;100667.00;;;;2095589;28;20463;-66
2023/09/08 03:06:20;;;;;;;5.50;5.00;;;;;24.40;100669.00;;;;2082236;28;20216;-66
2023/09/08 03:07:20;;;;;;;5.47;5.00;;;;;24.40;100661.00;;;;2091238;28;20731;-66
2023/09/08 03:08:22;;;;;;;5.60;5.10;;;;;24.40;100668.00;;;;2086152;28;20216;-66
2023/09/08 03:09:23;;;;;;;5.40;4.90;;;;;24.40;100666.00;;;;2087221;28;20220;-66
2023/09/08 03:10:23;;;;;;;5.20;4.70;;;;;24.40;100672.00;;;;2080537;28;20215;-66
2023/09/08 03:11:23;;;;;;;8.47;5.57;;;;;24.40;100661.00;;;;2085605;28;20213;-66
2023/09/08 03:12:24;;;;;;;5.70;5.20;;;;;24.40;100663.00;;;;2091183;28;20243;-66
2023/09/08 03:13:25;;;;;;;7.07;4.50;;;;;24.40;100662.00;;;;2086533;28;20217;-66
2023/09/08 03:14:26;;;;;;;5.43;4.63;;;;;24.40;100669.00;;;;2089921;28;20226;-66
2023/09/08 03:15:29;;;;;;;5.13;4.63;;;;;24.40;100668.00;;;;2078815;28;20208;-66
2023/09/08 03:16:29;;;;;;;5.85;4.53;;;;;24.40;100664.00;;;;2079903;28;20213;-66
2023/09/08 03:17:30;;;;;;;5.50;5.00;;;;;24.40;100665.00;;;;2089330;28;20521;-66
2023/09/08 03:18:30;;;;;;;5.77;4.50;;;;;24.40;100669.00;;;;2087367;28;20217;-66
2023/09/08 03:19:30;;;;;;;5.57;4.60;;;;;24.40;100654.00;;;;2085995;28;20227;-66
2023/09/08 03:20:31;;;;;;;5.80;5.30;;;;;24.40;100664.00;;;;2078997;28;20213;-66
2023/09/08 03:21:31;;;;;;;6.00;5.10;;;;;24.40;100659.00;;;;2078328;28;20293;-66
2023/09/08 03:22:31;;;;;;;5.53;5.00;;;;;24.40;100662.00;;;;2081354;28;20210;-66
2023/09/08 03:23:32;;;;;;;6.33;5.33;;;;;24.40;100656.00;;;;2082298;28;20206;-66
2023/09/08 03:24:32;;;;;;;5.40;4.90;;;;;24.40;100659.00;;;;2072359;28;20214;-66
2023/09/08 03:25:32;;;;;;;5.03;4.53;;;;;24.40;100659.00;;;;2075087;28;20213;-66
2023/09/08 03:26:33;;;;;;;5.67;5.17;;;;;24.40;100654.00;;;;2085919;28;20236;-66
2023/09/08 03:27:33;;;;;;;5.70;4.97;;;;;24.20;100638.00;;;;2086524;28;20217;-66
2023/09/08 03:28:34;;;;;;;5.57;5.03;;;;;24.40;100656.00;;;;2084455;28;20260;-66
2023/09/08 03:29:34;;;;;;;5.77;4.80;;;;;24.40;100668.00;;;;2081297;28;20217;-66
2023/09/08 03:30:34;;;;;;;6.47;4.90;;;;;24.40;100655.00;;;;2080781;28;20228;-66
2023/09/08 03:31:35;;;;;;;5.33;4.93;;;;;24.30;100655.00;;;;2081696;28;20279;-66
2023/09/08 03:32:36;;;;;;;7.10;5.70;;;;;24.30;100651.00;;;;2081838;28;20214;-66
2023/09/08 03:33:36;;;;;;;4.63;4.23;;;;;24.40;100650.00;;;;2086400;28;20201;-66
2023/09/08 03:34:39;;;;;;;5.63;5.13;;;;;24.40;100647.00;;;;2091486;28;20872;-66
2023/09/08 03:35:39;;;;;;;5.25;4.75;;;;;24.30;100642.00;;;;2080628;28;20755;-66
2023/09/08 03:36:40;;;;;;;5.70;5.20;;;;;24.40;100650.00;;;;2087615;28;20310;-66
2023/09/08 03:37:40;;;;;;;7.13;5.33;;;;;24.40;100648.00;;;;2090677;28;20216;-66
2023/09/08 03:38:41;;;;;;;5.17;4.70;;;;;24.40;100637.00;;;;2091292;28;20250;-66
2023/09/08 03:39:41;;;;;;;5.53;4.80;;;;;24.40;100634.00;;;;2089091;28;20209;-66
2023/09/08 03:40:42;;;;;;;5.50;4.90;;;;;24.30;100638.00;;;;2081274;28;20241;-66
2023/09/08 03:41:42;;;;;;;5.82;5.18;;;;;24.40;100641.00;;;;2092891;28;20214;-65
2023/09/08 03:42:43;;;;;;;5.60;5.10;;;;;24.40;100653.00;;;;2084778;28;20210;-65
2023/09/08 03:43:43;;;;;;;5.77;5.27;;;;;24.40;100649.00;;;;2087376;28;20213;-65
2023/09/08 03:44:43;;;;;;;5.90;5.20;;;;;24.40;100646.00;;;;2084395;28;20589;-65
2023/09/08 03:45:44;;;;;;;5.50;5.00;;;;;24.40;100641.00;;;;2081551;28;20227;-65
2023/09/08 03:46:45;;;;;;;5.33;4.93;;;;;24.40;100645.00;;;;2088493;28;20426;-65
2023/09/08 03:47:45;;;;;;;6.18;4.80;;;;;24.40;100639.00;;;;2087371;28;20219;-65
2023/09/08 03:48:46;;;;;;;6.10;5.50;;;;;24.30;100645.00;;;;2088799;28;20216;-65
2023/09/08 03:49:46;;;;;;;5.07;4.67;;;;;24.30;100638.00;;;;2086911;28;20219;-65
2023/09/08 03:50:47;;;;;;;5.10;4.67;;;;;24.40;100643.00;;;;2074044;28;20232;-65
2023/09/08 03:51:47;;;;;;;6.53;5.30;;;;;24.30;100641.00;;;;2086727;28;20292;-65
2023/09/08 03:52:47;;;;;;;5.00;4.60;;;;;24.30;100641.00;;;;2083771;28;20213;-65
2023/09/08 03:53:48;;;;;;;6.97;5.40;;;;;24.30;100640.00;;;;2086625;28;20231;-65
2023/09/08 03:54:48;;;;;;;5.43;4.90;;;;;24.30;100642.00;;;;2086847;28;20220;-65
2023/09/08 03:55:48;;;;;;;4.80;4.40;;;;;24.30;100641.00;;;;2077946;28;20225;-65
2023/09/08 03:56:49;;;;;;;5.13;4.73;;;;;24.30;100645.00;;;;2088774;28;20209;-65
2023/09/08 03:57:49;;;;;;;5.20;4.43;;;;;24.30;100643.00;;;;2087344;28;20212;-65
2023/09/08 03:58:49;;;;;;;5.83;5.23;;;;;24.30;100648.00;;;;2088516;28;20685;-65
2023/09/08 03:59:50;;;;;;;5.63;5.03;;;;;24.30;100641.00;;;;2085894;28;20217;-65
2023/09/08 04:00:50;;;;;;;5.00;4.50;;;;;24.30;100650.00;;;;2071789;28;20241;-65
2023/09/08 04:01:50;;;;;;;5.50;5.00;;;;;24.30;100647.00;;;;2087311;28;20232;-65
2023/09/08 04:02:51;;;;;;;5.50;4.70;;;;;24.30;100646.00;;;;2088418;28;20209;-66
2023/09/08 04:03:51;;;;;;;5.67;5.17;;;;;24.30;100650.00;;;;2088619;28;20234;-66
2023/09/08 04:04:51;;;;;;;5.60;5.00;;;;;24.30;100653.00;;;;2085788;28;20204;-66
2023/09/08 04:05:52;;;;;;;6.40;4.70;;;;;24.30;100645.00;;;;2071943;28;20221;-66
2023/09/08 04:06:52;;;;;;;5.40;4.90;;;;;24.30;100641.00;;;;2086007;28;20212;-66
2023/09/08 04:07:52;;;;;;;5.33;4.93;;;;;24.30;100638.00;;;;2084214;28;20217;-66
2023/09/08 04:08:53;;;;;;;5.77;5.17;;;;;24.30;100640.00;;;;2086560;28;20958;-66
2023/09/08 04:09:54;;;;;;;5.47;4.97;;;;;24.30;100645.00;;;;2093364;28;20208;-66
2023/09/08 04:10:54;;;;;;;5.20;4.77;;;;;24.30;100649.00;;;;2079961;28;20471;-66
2023/09/08 04:11:55;;;;;;;6.40;5.00;;;;;24.30;100640.00;;;;2087554;28;20216;-66
2023/09/08 04:12:55;;;;;;;5.20;4.70;;;;;24.30;100638.00;;;;2086623;28;20292;-66
2023/09/08 04:13:55;;;;;;;5.43;4.80;;;;;24.30;100649.00;;;;2091049;28;20271;-66
2023/09/08 04:14:56;;;;;;;6.00;4.50;;;;;24.30;100644.00;;;;2096004;28;20243;-66
2023/09/08 04:15:56;;;;;;;5.50;5.00;;;;;24.30;100641.00;;;;2077717;28;20217;-66
2023/09/08 04:16:57;;;;;;;4.93;4.43;;;;;24.30;100631.00;;;;2085477;28;20537;-66
2023/09/08 04:17:57;;;;;;;5.90;5.40;;;;;24.30;100646.00;;;;2084101;28;20580;-66
2023/09/08 04:18:58;;;;;;;4.50;4.10;;;;;24.30;100642.00;;;;2086143;28;20587;-66
2023/09/08 04:19:58;;;;;;;5.40;4.90;;;;;24.30;100649.00;;;;2088545;28;20209;-66
2023/09/08 04:20:58;;;;;;;5.30;4.90;;;;;24.30;100646.00;;;;2077738;28;20727;-66
2023/09/08 04:21:59;;;;;;;5.67;5.17;;;;;24.30;100647.00;;;;2088547;28;20713;-66
2023/09/08 04:22:59;;;;;;;5.40;5.00;;;;;24.30;100645.00;;;;2081603;28;20209;-66
2023/09/08 04:23:59;;;;;;;4.90;4.50;;;;;24.30;100640.00;;;;2085887;28;20232;-66
2023/09/08 04:25:00;;;;;;;7.60;5.10;;;;;24.30;100644.00;;;;2082738;28;20235;-66
2023/09/08 04:26:00;;;;;;;5.83;4.70;;;;;24.30;100648.00;;;;2077618;28;20282;-66
2023/09/08 04:27:01;;;;;;;5.23;4.73;;;;;24.30;100640.00;;;;2088256;28;20879;-66
2023/09/08 04:28:01;;;;;;;5.40;4.90;;;;;24.30;100644.00;;;;2087468;28;20271;-66
2023/09/08 04:29:01;;;;;;;5.47;4.97;;;;;24.30;100640.00;;;;2089700;28;20247;-66
2023/09/08 04:30:04;;;;;;;6.03;5.43;;;;;24.30;100641.00;;;;2086514;28;21887;-66
2023/09/08 04:31:04;;;;;;;5.80;5.25;;;;;24.30;100639.00;;;;2080705;28;20236;-66
2023/09/08 04:32:08;;;;;;;5.70;5.10;;;;;24.30;100639.00;;;;2087982;28;20247;-66
2023/09/08 04:33:09;;;;;;;5.80;5.25;;;;;24.30;100628.00;;;;2082275;28;20221;-66
2023/09/08 04:34:09;;;;;;;6.27;4.67;;;;;24.30;100643.00;;;;2085862;28;20204;-66
2023/09/08 04:35:09;;;;;;;5.00;4.50;;;;;24.30;100635.00;;;;2084898;28;20302;-66
2023/09/08 04:36:11;;;;;;;5.50;5.00;;;;;24.20;100645.00;;;;2078641;28;20288;-66
2023/09/08 04:37:11;;;;;;;5.25;4.75;;;;;24.30;100627.00;;;;2085602;28;20204;-66
2023/09/08 04:38:11;;;;;;;5.50;5.00;;;;;24.30;100643.00;;;;2083371;28;20225;-66
2023/09/08 04:39:11;;;;;;;5.70;5.20;;;;;24.30;100644.00;;;;2087063;28;20204;-66
2023/09/08 04:40:12;;;;;;;4.90;4.37;;;;;24.30;100612.00;;;;2086985;28;20205;-66
2023/09/08 04:41:12;;;;;;;5.40;4.70;;;;;24.30;100642.00;;;;2074265;28;20259;-66
2023/09/08 04:42:12;;;;;;;5.90;5.30;;;;;24.30;100631.00;;;;2082489;28;20244;-66
2023/09/08 04:43:13;;;;;;;5.50;4.60;;;;;24.30;100645.00;;;;2081917;28;20214;-66
2023/09/08 04:44:13;;;;;;;5.93;4.80;;;;;24.30;100643.00;;;;2087758;28;20213;-66
2023/09/08 04:45:14;;;;;;;4.93;4.53;;;;;24.20;100642.00;;;;2086209;28;20695;-66
2023/09/08 04:46:14;;;;;;;5.40;4.90;;;;;24.30;100642.00;;;;2083968;28;20562;-66
2023/09/08 04:47:14;;;;;;;5.83;5.10;;;;;24.30;100647.00;;;;2092927;28;20246;-66
2023/09/08 04:48:14;;;;;;;6.43;4.93;;;;;24.20;100647.00;;;;2087225;28;20243;-66
2023/09/08 04:49:15;;;;;;;5.57;5.07;;;;;24.30;100649.00;;;;2087968;28;20209;-66
2023/09/08 04:50:15;;;;;;;5.30;4.80;;;;;24.30;100630.00;;;;2088515;28;20228;-66
2023/09/08 04:51:16;;;;;;;5.70;5.20;;;;;24.30;100646.00;;;;2077980;28;20220;-66
2023/09/08 04:52:16;;;;;;;6.00;5.40;;;;;24.30;100644.00;;;;2084336;28;20236;-66
2023/09/08 04:53:16;;;;;;;5.50;4.90;;;;;24.30;100645.00;;;;2080573;28;20221;-66
2023/09/08 04:54:17;;;;;;;5.50;5.00;;;;;24.30;100647.00;;;;2083260;28;20236;-66
2023/09/08 04:55:17;;;;;;;5.90;5.13;;;;;24.30;100647.00;;;;2083716;28;20214;-66
2023/09/08 04:56:17;;;;;;;5.53;5.03;;;;;24.30;100647.00;;;;2075575;28;20690;-66
2023/09/08 04:57:18;;;;;;;5.50;5.00;;;;;24.30;100647.00;;;;2088937;28;20201;-66
2023/09/08 04:58:18;;;;;;;5.23;4.73;;;;;24.30;100651.00;;;;2087395;28;20286;-66
2023/09/08 04:59:18;;;;;;;4.87;4.47;;;;;24.30;100646.00;;;;2088193;28;20220;-66
2023/09/08 05:00:19;;;;;;;5.33;4.53;;;;;24.30;100644.00;;;;2088822;28;20208;-66